createdAt,value
2017-07-30T15:50:02.678Z,30.5
2017-07-30T16:00:15.120Z,31.6
2017-07-30T17:00:15.540Z,31.4
2017-07-30T17:05:07.453Z,31.2
2017-07-30T17:10:03.077Z,31.2
2017-07-30T17:15:05.598Z,30.6
2017-07-30T17:20:23.043Z,30.4
2017-07-30T17:25:03.278Z,30.4
2017-07-30T17:30:02.937Z,30.1
2017-07-30T17:35:08.121Z,29.8
2017-07-30T17:40:02.600Z,29.8
2017-07-30T17:45:05.403Z,29.5
2017-07-30T17:50:06.134Z,29.4
2017-07-30T17:55:30.768Z,29.3
2017-07-30T18:00:30.798Z,29.3
2017-07-30T18:05:15.579Z,29.2
2017-07-30T18:10:03.432Z,29.2
2017-07-30T18:15:04.186Z,29.1
2017-07-30T18:20:05.699Z,29.1
2017-07-30T18:25:02.815Z,29.1
2017-07-30T18:30:02.952Z,29.2
2017-07-30T18:35:03.294Z,29.2
2017-07-30T18:40:05.480Z,29.1
2017-07-30T18:45:02.544Z,29.1
2017-07-30T18:50:05.346Z,28.9
2017-07-30T18:55:05.995Z,28.8
2017-07-30T19:00:08.013Z,28.7
2017-07-30T19:05:05.501Z,28.4
2017-07-30T19:10:08.309Z,28.2
2017-07-30T19:15:03.577Z,28.2
2017-07-30T19:20:05.353Z,27.9
2017-07-30T19:25:02.823Z,27.9
2017-07-30T19:30:05.624Z,27.9
2017-07-30T19:35:02.590Z,27.9
2017-07-30T19:40:05.900Z,27.9
2017-07-30T19:45:02.867Z,27.9
2017-07-30T19:50:03.106Z,27.8
2017-07-30T19:55:10.818Z,27.7
2017-07-30T20:00:03.025Z,27.7
2017-07-30T20:05:13.301Z,27.4
2017-07-30T20:10:08.052Z,27.3
2017-07-30T20:15:03.589Z,27.3
2017-07-30T20:20:02.906Z,27.2
2017-07-30T20:25:03.043Z,27.1
2017-07-30T20:30:08.231Z,27
2017-07-30T20:35:08.147Z,26.9
2017-07-30T20:40:05.299Z,26.7
2017-07-30T20:45:16.087Z,26.5
2017-07-30T20:50:05.573Z,26.5
2017-07-30T20:55:12.776Z,26.4
2017-07-30T21:00:05.540Z,26.4
2017-07-30T21:05:05.168Z,26.3
2017-07-30T21:10:05.408Z,26.3
2017-07-30T21:15:05.087Z,26.2
2017-07-30T21:20:10.904Z,26.1
2017-07-30T21:25:03.053Z,26.1
2017-07-30T21:30:03.192Z,26
2017-07-30T21:35:03.330Z,25.8
2017-07-30T21:40:05.620Z,25.7
2017-07-30T21:45:18.046Z,25.6
2017-07-30T21:50:05.585Z,25.6
2017-07-30T21:55:02.857Z,25.6
2017-07-30T22:00:05.962Z,25.4
2017-07-30T22:05:13.166Z,25.3
2017-07-30T22:10:05.419Z,25.2
2017-07-30T22:15:02.689Z,25.2
2017-07-30T22:20:15.886Z,25.1
2017-07-30T22:25:07.982Z,25.1
2017-07-30T22:30:03.056Z,25.1
2017-07-30T22:35:05.902Z,25
2017-07-30T22:40:13.721Z,24.9
2017-07-30T22:45:05.358Z,24.8
2017-07-30T22:50:03.450Z,24.8
2017-07-30T22:55:03.545Z,24.7
2017-07-30T23:00:12.940Z,24.5
2017-07-30T23:05:25.981Z,24.4
2017-07-30T23:10:11.165Z,24.3
2017-07-30T23:15:03.317Z,24.3
2017-07-30T23:20:05.198Z,24.2
2017-07-30T23:25:13.536Z,24.2
2017-07-30T23:30:07.830Z,24.1
2017-07-30T23:35:05.509Z,24.1
2017-07-30T23:40:03.183Z,24.1
2017-07-30T23:45:05.885Z,24
2017-07-30T23:50:12.985Z,24
2017-07-30T23:55:08.147Z,23.9
